sensor_id;sensor_type;location;lat;lon;timestamp;P1;durP1;ratioP1;P2;durP2;ratioP2
2772;SDS011;1394;47.044;15.744;2023-09-18T00:02:09;24.73;;;2.03;;
2772;SDS011;1394;47.044;15.744;2023-09-18T00:04:38;25.17;;;2.60;;
2772;SDS011;1394;47.044;15.744;2023-09-18T00:07:05;25.30;;;2.70;;
2772;SDS011;1394;47.044;15.744;2023-09-18T00:09:32;24.67;;;2.07;;
2772;SDS011;1394;47.044;15.744;2023-09-18T00:11:59;24.73;;;2.07;;
2772;SDS011;1394;47.044;15.744;2023-09-18T00:14:26;25.30;;;2.30;;
2772;SDS011;1394;47.044;15.744;2023-09-18T00:16:53;25.33;;;2.33;;
2772;SDS011;1394;47.044;15.744;2023-09-18T00:19:23;25.33;;;2.30;;
2772;SDS011;1394;47.044;15.744;2023-09-18T00:21:53;24.60;;;1.93;;
2772;SDS011;1394;47.044;15.744;2023-09-18T00:24:21;25.27;;;2.30;;
2772;SDS011;1394;47.044;15.744;2023-09-18T00:26:50;25.27;;;2.50;;
2772;SDS011;1394;47.044;15.744;2023-09-18T00:29:18;25.60;;;2.57;;
2772;SDS011;1394;47.044;15.744;2023-09-18T00:31:45;25.27;;;2.67;;
2772;SDS011;1394;47.044;15.744;2023-09-18T00:34:12;25.07;;;2.57;;
2772;SDS011;1394;47.044;15.744;2023-09-18T00:36:40;25.57;;;3.17;;
2772;SDS011;1394;47.044;15.744;2023-09-18T00:39:09;25.60;;;2.70;;
2772;SDS011;1394;47.044;15.744;2023-09-18T00:41:36;26.10;;;2.77;;
2772;SDS011;1394;47.044;15.744;2023-09-18T00:44:04;25.00;;;2.50;;
2772;SDS011;1394;47.044;15.744;2023-09-18T00:46:31;24.90;;;2.30;;
2772;SDS011;1394;47.044;15.744;2023-09-18T00:48:59;26.10;;;2.83;;
2772;SDS011;1394;47.044;15.744;2023-09-18T00:51:26;25.00;;;2.10;;
2772;SDS011;1394;47.044;15.744;2023-09-18T00:53:53;25.20;;;2.67;;
2772;SDS011;1394;47.044;15.744;2023-09-18T00:56:22;25.53;;;2.47;;
2772;SDS011;1394;47.044;15.744;2023-09-18T00:58:49;24.83;;;2.30;;
2772;SDS011;1394;47.044;15.744;2023-09-18T01:01:17;25.13;;;2.20;;
2772;SDS011;1394;47.044;15.744;2023-09-18T01:03:48;25.40;;;2.40;;
2772;SDS011;1394;47.044;15.744;2023-09-18T01:06:16;24.80;;;2.13;;
2772;SDS011;1394;47.044;15.744;2023-09-18T01:08:44;25.20;;;2.50;;
2772;SDS011;1394;47.044;15.744;2023-09-18T01:11:14;24.77;;;2.10;;
2772;SDS011;1394;47.044;15.744;2023-09-18T01:13:49;25.03;;;2.37;;
2772;SDS011;1394;47.044;15.744;2023-09-18T01:16:20;24.93;;;2.10;;
2772;SDS011;1394;47.044;15.744;2023-09-18T01:18:51;24.80;;;2.10;;
2772;SDS011;1394;47.044;15.744;2023-09-18T01:21:18;25.47;;;2.20;;
2772;SDS011;1394;47.044;15.744;2023-09-18T01:23:47;24.83;;;2.03;;
2772;SDS011;1394;47.044;15.744;2023-09-18T01:26:16;24.97;;;1.90;;
2772;SDS011;1394;47.044;15.744;2023-09-18T01:28:43;25.03;;;2.07;;
2772;SDS011;1394;47.044;15.744;2023-09-18T01:31:11;25.00;;;2.20;;
2772;SDS011;1394;47.044;15.744;2023-09-18T01:33:38;25.67;;;1.93;;
2772;SDS011;1394;47.044;15.744;2023-09-18T01:36:07;27.10;;;2.37;;
2772;SDS011;1394;47.044;15.744;2023-09-18T01:38:35;25.00;;;2.10;;
2772;SDS011;1394;47.044;15.744;2023-09-18T01:41:08;25.33;;;2.03;;
2772;SDS011;1394;47.044;15.744;2023-09-18T01:43:36;25.40;;;2.23;;
2772;SDS011;1394;47.044;15.744;2023-09-18T01:46:03;25.00;;;2.20;;
2772;SDS011;1394;47.044;15.744;2023-09-18T01:48:31;24.73;;;2.20;;
2772;SDS011;1394;47.044;15.744;2023-09-18T01:50:58;25.30;;;2.40;;
2772;SDS011;1394;47.044;15.744;2023-09-18T01:53:27;25.20;;;2.27;;
2772;SDS011;1394;47.044;15.744;2023-09-18T01:55:54;28.10;;;5.90;;
2772;SDS011;1394;47.044;15.744;2023-09-18T01:58:23;25.70;;;3.63;;
2772;SDS011;1394;47.044;15.744;2023-09-18T02:00:50;25.00;;;2.10;;
2772;SDS011;1394;47.044;15.744;2023-09-18T02:03:17;26.60;;;2.23;;
2772;SDS011;1394;47.044;15.744;2023-09-18T02:05:45;25.53;;;2.20;;
2772;SDS011;1394;47.044;15.744;2023-09-18T02:08:12;24.93;;;2.00;;
2772;SDS011;1394;47.044;15.744;2023-09-18T02:10:40;24.90;;;2.30;;
2772;SDS011;1394;47.044;15.744;2023-09-18T02:13:07;24.97;;;2.00;;
2772;SDS011;1394;47.044;15.744;2023-09-18T02:15:37;25.67;;;2.00;;
2772;SDS011;1394;47.044;15.744;2023-09-18T02:18:04;24.90;;;2.00;;
2772;SDS011;1394;47.044;15.744;2023-09-18T02:20:32;24.80;;;2.20;;
2772;SDS011;1394;47.044;15.744;2023-09-18T02:23:05;25.50;;;2.03;;
2772;SDS011;1394;47.044;15.744;2023-09-18T02:25:34;25.03;;;2.17;;
2772;SDS011;1394;47.044;15.744;2023-09-18T02:28:01;24.90;;;1.80;;
2772;SDS011;1394;47.044;15.744;2023-09-18T02:30:28;24.90;;;1.87;;
2772;SDS011;1394;47.044;15.744;2023-09-18T02:32:57;24.60;;;1.80;;
2772;SDS011;1394;47.044;15.744;2023-09-18T02:35:24;25.07;;;1.60;;
2772;SDS011;1394;47.044;15.744;2023-09-18T02:37:52;24.67;;;1.80;;
2772;SDS011;1394;47.044;15.744;2023-09-18T02:40:19;24.50;;;1.90;;
2772;SDS011;1394;47.044;15.744;2023-09-18T02:42:46;24.80;;;1.90;;
2772;SDS011;1394;47.044;15.744;2023-09-18T02:45:14;24.67;;;1.70;;
2772;SDS011;1394;47.044;15.744;2023-09-18T02:47:41;24.60;;;2.00;;
2772;SDS011;1394;47.044;15.744;2023-09-18T02:50:09;24.93;;;1.97;;
2772;SDS011;1394;47.044;15.744;2023-09-18T02:52:37;25.47;;;2.00;;
2772;SDS011;1394;47.044;15.744;2023-09-18T02:55:04;24.80;;;2.30;;
2772;SDS011;1394;47.044;15.744;2023-09-18T02:57:31;24.77;;;2.10;;
2772;SDS011;1394;47.044;15.744;2023-09-18T02:59:59;26.63;;;2.53;;
2772;SDS011;1394;47.044;15.744;2023-09-18T03:02:26;25.07;;;1.83;;
2772;SDS011;1394;47.044;15.744;2023-09-18T03:04:53;24.70;;;1.90;;
2772;SDS011;1394;47.044;15.744;2023-09-18T03:07:22;24.60;;;1.80;;
2772;SDS011;1394;47.044;15.744;2023-09-18T03:09:49;24.40;;;1.60;;
2772;SDS011;1394;47.044;15.744;2023-09-18T03:12:18;24.37;;;1.80;;
2772;SDS011;1394;47.044;15.744;2023-09-18T03:14:45;24.90;;;2.00;;
2772;SDS011;1394;47.044;15.744;2023-09-18T03:17:12;24.93;;;1.93;;
2772;SDS011;1394;47.044;15.744;2023-09-18T03:19:39;24.90;;;2.40;;
2772;SDS011;1394;47.044;15.744;2023-09-18T03:22:08;25.83;;;2.27;;
2772;SDS011;1394;47.044;15.744;2023-09-18T03:24:36;25.53;;;2.27;;
2772;SDS011;1394;47.044;15.744;2023-09-18T03:27:04;25.10;;;2.20;;
2772;SDS011;1394;47.044;15.744;2023-09-18T03:29:32;24.47;;;2.07;;
2772;SDS011;1394;47.044;15.744;2023-09-18T03:31:59;25.43;;;2.37;;
2772;SDS011;1394;47.044;15.744;2023-09-18T03:34:28;24.60;;;2.03;;
2772;SDS011;1394;47.044;15.744;2023-09-18T03:36:55;27.30;;;1.97;;
2772;SDS011;1394;47.044;15.744;2023-09-18T03:39:22;26.70;;;2.57;;
2772;SDS011;1394;47.044;15.744;2023-09-18T03:41:51;24.67;;;2.10;;
2772;SDS011;1394;47.044;15.744;2023-09-18T03:44:19;25.30;;;1.90;;
2772;SDS011;1394;47.044;15.744;2023-09-18T03:46:47;24.97;;;2.30;;
2772;SDS011;1394;47.044;15.744;2023-09-18T03:49:15;24.50;;;1.80;;
2772;SDS011;1394;47.044;15.744;2023-09-18T03:51:44;24.57;;;1.80;;
2772;SDS011;1394;47.044;15.744;2023-09-18T03:54:11;24.70;;;1.90;;
2772;SDS011;1394;47.044;15.744;2023-09-18T03:56:38;24.60;;;2.03;;
2772;SDS011;1394;47.044;15.744;2023-09-18T03:59:08;24.60;;;1.80;;
2772;SDS011;1394;47.044;15.744;2023-09-18T04:01:35;25.30;;;2.37;;
2772;SDS011;1394;47.044;15.744;2023-09-18T04:04:05;24.90;;;2.30;;
2772;SDS011;1394;47.044;15.744;2023-09-18T04:06:37;25.33;;;2.80;;
2772;SDS011;1394;47.044;15.744;2023-09-18T04:09:04;25.33;;;2.33;;
2772;SDS011;1394;47.044;15.744;2023-09-18T04:11:33;24.60;;;2.40;;
2772;SDS011;1394;47.044;15.744;2023-09-18T04:14:00;25.60;;;2.40;;
2772;SDS011;1394;47.044;15.744;2023-09-18T04:16:29;25.10;;;2.17;;
2772;SDS011;1394;47.044;15.744;2023-09-18T04:19:00;25.60;;;2.10;;
2772;SDS011;1394;47.044;15.744;2023-09-18T04:21:28;26.23;;;2.20;;
2772;SDS011;1394;47.044;15.744;2023-09-18T04:23:56;24.93;;;2.03;;
2772;SDS011;1394;47.044;15.744;2023-09-18T04:26:24;25.43;;;2.00;;
2772;SDS011;1394;47.044;15.744;2023-09-18T04:28:54;25.17;;;2.10;;
2772;SDS011;1394;47.044;15.744;2023-09-18T04:31:26;24.80;;;2.13;;
2772;SDS011;1394;47.044;15.744;2023-09-18T04:33:55;25.70;;;2.10;;
2772;SDS011;1394;47.044;15.744;2023-09-18T04:36:25;25.00;;;2.40;;
2772;SDS011;1394;47.044;15.744;2023-09-18T04:38:52;25.00;;;2.23;;
2772;SDS011;1394;47.044;15.744;2023-09-18T04:41:19;25.70;;;2.93;;
2772;SDS011;1394;47.044;15.744;2023-09-18T04:43:46;24.60;;;2.10;;
2772;SDS011;1394;47.044;15.744;2023-09-18T04:46:16;25.03;;;2.30;;
2772;SDS011;1394;47.044;15.744;2023-09-18T04:48:45;24.80;;;2.40;;
2772;SDS011;1394;47.044;15.744;2023-09-18T04:51:16;24.90;;;2.40;;
2772;SDS011;1394;47.044;15.744;2023-09-18T04:53:43;25.80;;;3.30;;
2772;SDS011;1394;47.044;15.744;2023-09-18T04:56:11;24.90;;;2.20;;
2772;SDS011;1394;47.044;15.744;2023-09-18T04:58:39;25.13;;;2.80;;
2772;SDS011;1394;47.044;15.744;2023-09-18T05:01:07;25.00;;;2.47;;
2772;SDS011;1394;47.044;15.744;2023-09-18T05:03:36;25.57;;;2.17;;
2772;SDS011;1394;47.044;15.744;2023-09-18T05:06:03;24.60;;;2.20;;
2772;SDS011;1394;47.044;15.744;2023-09-18T05:08:32;24.67;;;2.10;;
2772;SDS011;1394;47.044;15.744;2023-09-18T05:10:59;24.47;;;2.10;;
2772;SDS011;1394;47.044;15.744;2023-09-18T05:13:27;24.73;;;1.90;;
2772;SDS011;1394;47.044;15.744;2023-09-18T05:15:55;24.47;;;1.97;;
2772;SDS011;1394;47.044;15.744;2023-09-18T05:18:24;26.23;;;2.03;;
2772;SDS011;1394;47.044;15.744;2023-09-18T05:20:51;24.67;;;1.90;;
2772;SDS011;1394;47.044;15.744;2023-09-18T05:23:19;24.80;;;2.00;;
2772;SDS011;1394;47.044;15.744;2023-09-18T05:25:51;24.70;;;2.30;;
2772;SDS011;1394;47.044;15.744;2023-09-18T05:28:20;26.30;;;2.60;;
2772;SDS011;1394;47.044;15.744;2023-09-18T05:30:47;26.40;;;2.70;;
2772;SDS011;1394;47.044;15.744;2023-09-18T05:33:16;25.43;;;2.40;;
2772;SDS011;1394;47.044;15.744;2023-09-18T05:35:47;25.33;;;2.47;;
2772;SDS011;1394;47.044;15.744;2023-09-18T05:38:15;24.97;;;2.40;;
2772;SDS011;1394;47.044;15.744;2023-09-18T05:40:43;25.07;;;2.50;;
2772;SDS011;1394;47.044;15.744;2023-09-18T05:43:12;25.27;;;2.30;;
2772;SDS011;1394;47.044;15.744;2023-09-18T05:45:39;25.87;;;2.37;;
2772;SDS011;1394;47.044;15.744;2023-09-18T05:48:06;24.67;;;2.20;;
2772;SDS011;1394;47.044;15.744;2023-09-18T05:50:35;27.20;;;2.70;;
2772;SDS011;1394;47.044;15.744;2023-09-18T05:53:02;25.20;;;2.80;;
2772;SDS011;1394;47.044;15.744;2023-09-18T05:55:31;25.60;;;2.60;;
2772;SDS011;1394;47.044;15.744;2023-09-18T05:57:58;24.97;;;2.57;;
2772;SDS011;1394;47.044;15.744;2023-09-18T06:00:27;25.17;;;3.03;;
2772;SDS011;1394;47.044;15.744;2023-09-18T06:02:56;25.30;;;2.90;;
2772;SDS011;1394;47.044;15.744;2023-09-18T06:05:24;24.87;;;2.77;;
2772;SDS011;1394;47.044;15.744;2023-09-18T06:07:51;26.07;;;3.10;;
2772;SDS011;1394;47.044;15.744;2023-09-18T06:10:20;25.53;;;2.87;;
2772;SDS011;1394;47.044;15.744;2023-09-18T06:12:47;26.17;;;3.27;;
2772;SDS011;1394;47.044;15.744;2023-09-18T06:15:16;25.53;;;3.40;;
2772;SDS011;1394;47.044;15.744;2023-09-18T06:17:48;25.37;;;3.00;;
2772;SDS011;1394;47.044;15.744;2023-09-18T06:20:15;25.47;;;3.63;;
2772;SDS011;1394;47.044;15.744;2023-09-18T06:22:42;26.83;;;3.63;;
2772;SDS011;1394;47.044;15.744;2023-09-18T06:25:09;25.73;;;3.33;;
2772;SDS011;1394;47.044;15.744;2023-09-18T06:27:38;25.50;;;3.20;;
2772;SDS011;1394;47.044;15.744;2023-09-18T06:30:06;26.20;;;3.20;;
2772;SDS011;1394;47.044;15.744;2023-09-18T06:32:36;25.90;;;3.37;;
2772;SDS011;1394;47.044;15.744;2023-09-18T06:35:05;25.93;;;3.67;;
2772;SDS011;1394;47.044;15.744;2023-09-18T06:37:32;27.43;;;3.30;;
2772;SDS011;1394;47.044;15.744;2023-09-18T06:39:59;25.70;;;3.03;;
2772;SDS011;1394;47.044;15.744;2023-09-18T06:42:30;25.80;;;3.67;;
2772;SDS011;1394;47.044;15.744;2023-09-18T06:44:57;26.17;;;3.50;;
2772;SDS011;1394;47.044;15.744;2023-09-18T06:47:32;26.07;;;3.37;;
2772;SDS011;1394;47.044;15.744;2023-09-18T06:50:00;25.60;;;3.23;;
2772;SDS011;1394;47.044;15.744;2023-09-18T06:52:32;26.87;;;3.33;;
2772;SDS011;1394;47.044;15.744;2023-09-18T06:55:00;25.97;;;3.20;;
2772;SDS011;1394;47.044;15.744;2023-09-18T06:57:28;26.20;;;3.20;;
2772;SDS011;1394;47.044;15.744;2023-09-18T06:59:56;26.50;;;3.17;;
2772;SDS011;1394;47.044;15.744;2023-09-18T07:02:23;26.33;;;3.10;;
2772;SDS011;1394;47.044;15.744;2023-09-18T07:04:50;26.67;;;3.40;;
2772;SDS011;1394;47.044;15.744;2023-09-18T07:07:17;26.30;;;3.17;;
2772;SDS011;1394;47.044;15.744;2023-09-18T07:09:51;25.50;;;3.17;;
2772;SDS011;1394;47.044;15.744;2023-09-18T07:12:19;27.07;;;3.27;;
2772;SDS011;1394;47.044;15.744;2023-09-18T07:14:46;25.60;;;3.13;;
2772;SDS011;1394;47.044;15.744;2023-09-18T07:17:13;28.20;;;3.37;;
2772;SDS011;1394;47.044;15.744;2023-09-18T07:19:41;25.53;;;3.00;;
2772;SDS011;1394;47.044;15.744;2023-09-18T07:22:08;26.27;;;2.97;;
2772;SDS011;1394;47.044;15.744;2023-09-18T07:24:36;25.50;;;2.90;;
2772;SDS011;1394;47.044;15.744;2023-09-18T07:27:07;25.83;;;2.67;;
2772;SDS011;1394;47.044;15.744;2023-09-18T07:29:34;25.30;;;2.60;;
2772;SDS011;1394;47.044;15.744;2023-09-18T07:32:02;25.77;;;2.83;;
2772;SDS011;1394;47.044;15.744;2023-09-18T07:34:29;25.40;;;2.90;;
2772;SDS011;1394;47.044;15.744;2023-09-18T07:36:57;25.30;;;2.70;;
2772;SDS011;1394;47.044;15.744;2023-09-18T07:39:27;25.80;;;2.93;;
2772;SDS011;1394;47.044;15.744;2023-09-18T07:41:55;25.83;;;2.70;;
2772;SDS011;1394;47.044;15.744;2023-09-18T07:44:24;25.50;;;2.80;;
2772;SDS011;1394;47.044;15.744;2023-09-18T07:46:51;27.20;;;3.27;;
2772;SDS011;1394;47.044;15.744;2023-09-18T07:49:19;26.50;;;2.87;;
2772;SDS011;1394;47.044;15.744;2023-09-18T07:51:48;25.80;;;2.80;;
2772;SDS011;1394;47.044;15.744;2023-09-18T07:54:15;26.07;;;2.80;;
2772;SDS011;1394;47.044;15.744;2023-09-18T07:56:43;25.90;;;3.00;;
2772;SDS011;1394;47.044;15.744;2023-09-18T07:59:11;25.70;;;2.77;;
2772;SDS011;1394;47.044;15.744;2023-09-18T08:01:41;25.43;;;3.10;;
2772;SDS011;1394;47.044;15.744;2023-09-18T08:04:08;25.90;;;2.77;;
2772;SDS011;1394;47.044;15.744;2023-09-18T08:06:37;25.47;;;2.87;;
2772;SDS011;1394;47.044;15.744;2023-09-18T08:09:06;26.07;;;3.27;;
2772;SDS011;1394;47.044;15.744;2023-09-18T08:11:38;25.80;;;3.27;;
2772;SDS011;1394;47.044;15.744;2023-09-18T08:14:08;25.60;;;3.07;;
2772;SDS011;1394;47.044;15.744;2023-09-18T08:16:37;25.40;;;3.10;;
2772;SDS011;1394;47.044;15.744;2023-09-18T08:19:06;25.50;;;2.83;;
2772;SDS011;1394;47.044;15.744;2023-09-18T08:21:34;26.00;;;3.30;;
2772;SDS011;1394;47.044;15.744;2023-09-18T08:24:02;25.77;;;3.40;;
2772;SDS011;1394;47.044;15.744;2023-09-18T08:26:30;25.60;;;2.83;;
2772;SDS011;1394;47.044;15.744;2023-09-18T08:28:58;25.90;;;3.40;;
2772;SDS011;1394;47.044;15.744;2023-09-18T08:31:27;25.47;;;2.97;;
2772;SDS011;1394;47.044;15.744;2023-09-18T08:33:56;25.40;;;2.80;;
2772;SDS011;1394;47.044;15.744;2023-09-18T08:36:25;26.03;;;3.17;;
2772;SDS011;1394;47.044;15.744;2023-09-18T08:38:54;25.53;;;3.10;;
2772;SDS011;1394;47.044;15.744;2023-09-18T08:41:21;26.00;;;3.20;;
2772;SDS011;1394;47.044;15.744;2023-09-18T08:43:52;26.23;;;3.67;;
2772;SDS011;1394;47.044;15.744;2023-09-18T08:46:19;26.37;;;3.30;;
2772;SDS011;1394;47.044;15.744;2023-09-18T08:48:47;26.43;;;3.50;;
2772;SDS011;1394;47.044;15.744;2023-09-18T08:51:15;26.00;;;3.50;;
2772;SDS011;1394;47.044;15.744;2023-09-18T08:53:44;26.20;;;3.33;;
2772;SDS011;1394;47.044;15.744;2023-09-18T08:56:13;25.70;;;3.43;;
2772;SDS011;1394;47.044;15.744;2023-09-18T08:58:40;25.80;;;3.33;;
2772;SDS011;1394;47.044;15.744;2023-09-18T09:01:09;26.40;;;3.73;;
2772;SDS011;1394;47.044;15.744;2023-09-18T09:03:36;25.80;;;3.20;;
2772;SDS011;1394;47.044;15.744;2023-09-18T09:06:03;28.80;;;3.67;;
2772;SDS011;1394;47.044;15.744;2023-09-18T09:08:32;25.50;;;3.00;;
2772;SDS011;1394;47.044;15.744;2023-09-18T09:11:02;25.40;;;2.87;;
2772;SDS011;1394;47.044;15.744;2023-09-18T09:13:29;25.57;;;2.97;;
2772;SDS011;1394;47.044;15.744;2023-09-18T09:15:58;25.60;;;3.00;;
2772;SDS011;1394;47.044;15.744;2023-09-18T09:18:29;25.70;;;3.23;;
2772;SDS011;1394;47.044;15.744;2023-09-18T09:20:59;25.67;;;3.13;;
2772;SDS011;1394;47.044;15.744;2023-09-18T09:23:27;25.70;;;2.90;;
2772;SDS011;1394;47.044;15.744;2023-09-18T09:25:56;25.73;;;2.80;;
2772;SDS011;1394;47.044;15.744;2023-09-18T09:28:43;25.20;;;2.53;;
2772;SDS011;1394;47.044;15.744;2023-09-18T09:31:11;25.50;;;2.77;;
2772;SDS011;1394;47.044;15.744;2023-09-18T09:33:50;25.57;;;2.80;;
2772;SDS011;1394;47.044;15.744;2023-09-18T09:36:19;26.43;;;2.70;;
2772;SDS011;1394;47.044;15.744;2023-09-18T09:38:49;25.47;;;2.70;;
2772;SDS011;1394;47.044;15.744;2023-09-18T09:41:25;25.37;;;2.40;;
2772;SDS011;1394;47.044;15.744;2023-09-18T09:43:54;25.40;;;2.70;;
2772;SDS011;1394;47.044;15.744;2023-09-18T09:46:23;25.27;;;2.20;;
2772;SDS011;1394;47.044;15.744;2023-09-18T09:48:57;25.30;;;2.63;;
2772;SDS011;1394;47.044;15.744;2023-09-18T09:51:26;25.40;;;2.50;;
2772;SDS011;1394;47.044;15.744;2023-09-18T09:53:53;25.67;;;2.80;;
2772;SDS011;1394;47.044;15.744;2023-09-18T09:56:23;25.17;;;2.20;;
2772;SDS011;1394;47.044;15.744;2023-09-18T09:59:10;25.57;;;2.40;;
2772;SDS011;1394;47.044;15.744;2023-09-18T10:01:39;25.33;;;2.70;;
2772;SDS011;1394;47.044;15.744;2023-09-18T10:04:16;25.30;;;2.20;;
2772;SDS011;1394;47.044;15.744;2023-09-18T10:06:45;24.90;;;2.40;;
2772;SDS011;1394;47.044;15.744;2023-09-18T10:09:14;25.53;;;2.17;;
2772;SDS011;1394;47.044;15.744;2023-09-18T10:11:45;25.30;;;2.20;;
2772;SDS011;1394;47.044;15.744;2023-09-18T10:14:15;25.10;;;2.10;;
2772;SDS011;1394;47.044;15.744;2023-09-18T10:16:44;25.57;;;2.47;;
2772;SDS011;1394;47.044;15.744;2023-09-18T10:19:14;25.80;;;2.33;;
2772;SDS011;1394;47.044;15.744;2023-09-18T10:21:50;25.00;;;2.33;;
2772;SDS011;1394;47.044;15.744;2023-09-18T10:24:20;25.43;;;2.27;;
2772;SDS011;1394;47.044;15.744;2023-09-18T10:26:50;25.00;;;2.30;;
2772;SDS011;1394;47.044;15.744;2023-09-18T10:29:20;25.07;;;2.20;;
2772;SDS011;1394;47.044;15.744;2023-09-18T10:31:50;25.87;;;2.37;;
2772;SDS011;1394;47.044;15.744;2023-09-18T10:34:17;25.07;;;2.10;;
2772;SDS011;1394;47.044;15.744;2023-09-18T10:36:45;25.70;;;2.50;;
2772;SDS011;1394;47.044;15.744;2023-09-18T10:39:13;25.13;;;2.27;;
2772;SDS011;1394;47.044;15.744;2023-09-18T10:41:44;25.97;;;2.73;;
2772;SDS011;1394;47.044;15.744;2023-09-18T10:44:14;25.23;;;2.40;;
2772;SDS011;1394;47.044;15.744;2023-09-18T10:46:49;24.97;;;2.10;;
2772;SDS011;1394;47.044;15.744;2023-09-18T10:49:17;25.47;;;2.20;;
2772;SDS011;1394;47.044;15.744;2023-09-18T10:51:45;26.00;;;2.10;;
2772;SDS011;1394;47.044;15.744;2023-09-18T10:54:14;24.83;;;1.87;;
2772;SDS011;1394;47.044;15.744;2023-09-18T10:56:43;25.00;;;1.97;;
2772;SDS011;1394;47.044;15.744;2023-09-18T10:59:10;25.07;;;2.10;;
2772;SDS011;1394;47.044;15.744;2023-09-18T11:01:40;25.63;;;2.20;;
2772;SDS011;1394;47.044;15.744;2023-09-18T11:04:10;25.03;;;2.20;;
2772;SDS011;1394;47.044;15.744;2023-09-18T11:09:30;25.17;;;2.10;;
2772;SDS011;1394;47.044;15.744;2023-09-18T11:12:03;25.30;;;1.87;;
2772;SDS011;1394;47.044;15.744;2023-09-18T11:14:45;24.80;;;1.73;;
2772;SDS011;1394;47.044;15.744;2023-09-18T11:20:05;26.83;;;1.90;;
2772;SDS011;1394;47.044;15.744;2023-09-18T11:22:35;25.03;;;2.20;;
2772;SDS011;1394;47.044;15.744;2023-09-18T11:27:54;25.07;;;1.87;;
2772;SDS011;1394;47.044;15.744;2023-09-18T11:30:21;24.77;;;1.80;;
2772;SDS011;1394;47.044;15.744;2023-09-18T11:32:50;24.83;;;1.93;;
2772;SDS011;1394;47.044;15.744;2023-09-18T11:35:19;25.00;;;1.87;;
2772;SDS011;1394;47.044;15.744;2023-09-18T11:37:47;24.60;;;1.77;;
2772;SDS011;1394;47.044;15.744;2023-09-18T11:43:21;24.53;;;1.70;;
2772;SDS011;1394;47.044;15.744;2023-09-18T11:45:51;24.67;;;1.50;;
2772;SDS011;1394;47.044;15.744;2023-09-18T11:48:22;24.50;;;1.60;;
2772;SDS011;1394;47.044;15.744;2023-09-18T11:50:57;24.73;;;1.80;;
2772;SDS011;1394;47.044;15.744;2023-09-18T11:53:26;24.57;;;1.67;;
2772;SDS011;1394;47.044;15.744;2023-09-18T11:55:54;24.63;;;1.60;;
2772;SDS011;1394;47.044;15.744;2023-09-18T11:58:21;24.50;;;1.60;;
2772;SDS011;1394;47.044;15.744;2023-09-18T12:00:51;24.40;;;1.53;;
2772;SDS011;1394;47.044;15.744;2023-09-18T12:03:20;24.80;;;1.50;;
2772;SDS011;1394;47.044;15.744;2023-09-18T12:05:59;24.37;;;1.40;;
2772;SDS011;1394;47.044;15.744;2023-09-18T12:08:30;24.80;;;1.90;;
2772;SDS011;1394;47.044;15.744;2023-09-18T12:10:58;24.20;;;1.67;;
2772;SDS011;1394;47.044;15.744;2023-09-18T12:13:25;24.10;;;1.33;;
2772;SDS011;1394;47.044;15.744;2023-09-18T12:15:57;24.47;;;1.50;;
2772;SDS011;1394;47.044;15.744;2023-09-18T12:18:26;24.53;;;1.60;;
2772;SDS011;1394;47.044;15.744;2023-09-18T12:20:55;25.10;;;1.47;;
2772;SDS011;1394;47.044;15.744;2023-09-18T12:23:26;24.20;;;1.60;;
2772;SDS011;1394;47.044;15.744;2023-09-18T12:25:58;24.37;;;1.60;;
2772;SDS011;1394;47.044;15.744;2023-09-18T12:28:26;24.40;;;1.63;;
2772;SDS011;1394;47.044;15.744;2023-09-18T12:30:57;24.97;;;1.67;;
2772;SDS011;1394;47.044;15.744;2023-09-18T12:33:33;24.53;;;1.60;;
2772;SDS011;1394;47.044;15.744;2023-09-18T12:36:02;24.43;;;1.50;;
2772;SDS011;1394;47.044;15.744;2023-09-18T12:38:31;24.40;;;1.60;;
2772;SDS011;1394;47.044;15.744;2023-09-18T12:40:59;24.70;;;1.40;;
2772;SDS011;1394;47.044;15.744;2023-09-18T12:43:34;24.47;;;1.70;;
2772;SDS011;1394;47.044;15.744;2023-09-18T12:46:02;24.87;;;1.40;;
2772;SDS011;1394;47.044;15.744;2023-09-18T12:48:32;24.87;;;1.80;;
2772;SDS011;1394;47.044;15.744;2023-09-18T12:51:03;24.53;;;1.53;;
2772;SDS011;1394;47.044;15.744;2023-09-18T12:53:33;24.73;;;1.50;;
2772;SDS011;1394;47.044;15.744;2023-09-18T12:56:06;24.47;;;1.50;;
2772;SDS011;1394;47.044;15.744;2023-09-18T12:58:33;25.53;;;1.70;;
2772;SDS011;1394;47.044;15.744;2023-09-18T13:01:03;24.50;;;1.47;;
2772;SDS011;1394;47.044;15.744;2023-09-18T13:03:34;25.27;;;1.70;;
2772;SDS011;1394;47.044;15.744;2023-09-18T13:06:09;25.00;;;1.63;;
2772;SDS011;1394;47.044;15.744;2023-09-18T13:08:38;24.80;;;1.80;;
2772;SDS011;1394;47.044;15.744;2023-09-18T13:11:05;25.03;;;1.50;;
2772;SDS011;1394;47.044;15.744;2023-09-18T13:13:32;25.07;;;1.90;;
2772;SDS011;1394;47.044;15.744;2023-09-18T13:16:04;24.97;;;2.00;;
2772;SDS011;1394;47.044;15.744;2023-09-18T13:18:34;25.27;;;2.07;;
2772;SDS011;1394;47.044;15.744;2023-09-18T13:21:08;25.03;;;1.77;;
2772;SDS011;1394;47.044;15.744;2023-09-18T13:23:38;24.70;;;1.70;;
2772;SDS011;1394;47.044;15.744;2023-09-18T13:26:06;24.90;;;1.73;;
2772;SDS011;1394;47.044;15.744;2023-09-18T13:28:33;24.97;;;1.73;;
2772;SDS011;1394;47.044;15.744;2023-09-18T13:31:01;26.70;;;1.93;;
2772;SDS011;1394;47.044;15.744;2023-09-18T13:33:31;26.20;;;1.90;;
2772;SDS011;1394;47.044;15.744;2023-09-18T13:35:59;24.90;;;1.80;;
2772;SDS011;1394;47.044;15.744;2023-09-18T13:38:26;25.53;;;1.80;;
2772;SDS011;1394;47.044;15.744;2023-09-18T13:40:58;27.00;;;1.60;;
2772;SDS011;1394;47.044;15.744;2023-09-18T13:43:25;25.03;;;1.87;;
2772;SDS011;1394;47.044;15.744;2023-09-18T13:45:53;24.97;;;1.80;;
2772;SDS011;1394;47.044;15.744;2023-09-18T13:48:22;24.80;;;1.67;;
2772;SDS011;1394;47.044;15.744;2023-09-18T13:50:49;24.60;;;1.67;;
2772;SDS011;1394;47.044;15.744;2023-09-18T13:53:17;24.70;;;1.80;;
2772;SDS011;1394;47.044;15.744;2023-09-18T13:55:48;25.63;;;1.90;;
2772;SDS011;1394;47.044;15.744;2023-09-18T13:58:18;24.60;;;1.70;;
2772;SDS011;1394;47.044;15.744;2023-09-18T14:00:45;26.20;;;2.03;;
2772;SDS011;1394;47.044;15.744;2023-09-18T14:03:14;24.90;;;1.60;;
2772;SDS011;1394;47.044;15.744;2023-09-18T14:05:43;24.70;;;1.80;;
2772;SDS011;1394;47.044;15.744;2023-09-18T14:08:11;24.43;;;1.73;;
2772;SDS011;1394;47.044;15.744;2023-09-18T14:10:38;24.90;;;1.87;;
2772;SDS011;1394;47.044;15.744;2023-09-18T14:13:08;25.77;;;1.90;;
2772;SDS011;1394;47.044;15.744;2023-09-18T14:15:38;25.27;;;1.80;;
2772;SDS011;1394;47.044;15.744;2023-09-18T14:18:06;24.80;;;1.80;;
2772;SDS011;1394;47.044;15.744;2023-09-18T14:20:33;26.33;;;1.90;;
2772;SDS011;1394;47.044;15.744;2023-09-18T14:23:02;26.00;;;1.90;;
2772;SDS011;1394;47.044;15.744;2023-09-18T14:25:32;25.57;;;1.90;;
2772;SDS011;1394;47.044;15.744;2023-09-18T14:28:00;25.03;;;1.97;;
2772;SDS011;1394;47.044;15.744;2023-09-18T14:30:27;25.57;;;2.00;;
2772;SDS011;1394;47.044;15.744;2023-09-18T14:32:58;26.10;;;1.77;;
2772;SDS011;1394;47.044;15.744;2023-09-18T14:35:27;25.33;;;1.77;;
2772;SDS011;1394;47.044;15.744;2023-09-18T14:37:54;25.50;;;1.67;;
2772;SDS011;1394;47.044;15.744;2023-09-18T14:40:22;25.70;;;2.17;;
2772;SDS011;1394;47.044;15.744;2023-09-18T14:42:49;24.97;;;1.60;;
2772;SDS011;1394;47.044;15.744;2023-09-18T14:45:16;26.07;;;1.90;;
2772;SDS011;1394;47.044;15.744;2023-09-18T14:47:43;27.10;;;2.10;;
2772;SDS011;1394;47.044;15.744;2023-09-18T14:50:12;26.80;;;2.10;;
2772;SDS011;1394;47.044;15.744;2023-09-18T14:52:39;25.33;;;1.97;;
2772;SDS011;1394;47.044;15.744;2023-09-18T14:55:07;25.67;;;1.83;;
2772;SDS011;1394;47.044;15.744;2023-09-18T14:57:34;26.13;;;1.70;;
2772;SDS011;1394;47.044;15.744;2023-09-18T15:00:02;28.37;;;2.03;;
2772;SDS011;1394;47.044;15.744;2023-09-18T15:02:31;25.43;;;1.90;;
2772;SDS011;1394;47.044;15.744;2023-09-18T15:05:00;25.53;;;1.93;;
2772;SDS011;1394;47.044;15.744;2023-09-18T15:07:31;25.30;;;1.80;;
2772;SDS011;1394;47.044;15.744;2023-09-18T15:09:58;26.10;;;2.10;;